Terminal Aerodrome Forecast
Issued by NWS St Louis, MO

Home | Current Version | Previous Version | Text Only | Print | Product List | Glossary On
Versions: 1 2 3 4 5 6 7 8 9 10 11 12 13 14 15
000
FTUS43 KLSX 272200 AAC
TAFSTL
TAF AMD
KSTL 272227Z 2722/2824 31010KT 6SM -RA OVC010
      TEMPO 2722/2801 5SM -PLSN
     FM280100 31008KT P6SM OVC015
     FM280600 31006KT P6SM SCT035
     FM281100 31006KT P6SM SCT250=

USA.gov is the U.S. government's official web portal to all federal, state and local government web resources and services.